Molenez — FGA2273 — position and weather

sailwx.info

Track history (hours):
 
Tides and Currents Weather Stations Pressure Air Temp Water Temp Dewpoint Dewpoint Depression Visibility Wind Speed Wind Dir Waves Ship Positions

Molenez

Last reported at 2018-Jan-12 15:00 UTC. Time now 2018-Jan-18 16:15 UTC.
Position N 48°23' W 004°29'.

Length 37 m; draft 2.4 m.

MMSI: 227008170.

Date/timePositionNaut miles runAvg speedWind from/ knotsBaromVisibWave heightAir tempDewpointWater temp
2018-Jan-12 15:00N 48°23' W 004°29'4 7.5
2018-Jan-12 14:31N 48°21' W 004°34'611.4
2018-Jan-12 14:01N 48°20' W 004°42'510.9
2018-Jan-12 13:30N 48°22' W 004°50'611.1
2018-Jan-12 13:00N 48°25' W 004°57'1 1.2
2018-Jan-12 12:31N 48°25' W 004°57'510.1
2018-Jan-12 12:00N 48°28' W 005°03'0 0.0
2018-Jan-12 11:30N 48°28' W 005°03'0 0.0
2018-Jan-12 11:00N 48°28' W 005°03'0 0.0
2018-Jan-12 10:30N 48°28' W 005°03'1 3.0
2018-Jan-12 10:00N 48°28' W 005°01'5 8.5
2018-Jan-12 09:28N 48°24' W 004°57'4 8.9
2018-Jan-12 09:00N 48°24' W 004°51'612.7
2018-Jan-12 08:31N 48°19' W 004°45'612.6
2018-Jan-12 08:00N 48°20' W 004°36'5 9.5
2018-Jan-12 07:30N 48°22' W 004°29'1 1.2
2018-Jan-12 07:00N 48°23' W 004°29'0 0.0
2018-Jan-12 06:30N 48°23' W 004°29'0 0.0
2018-Jan-12 06:00N 48°23' W 004°29'0 0.0
2018-Jan-12 05:30N 48°23' W 004°29'0 0.0
2018-Jan-12 05:00N 48°23' W 004°29'0 0.0
2018-Jan-12 04:30N 48°23' W 004°29'0 0.0
2018-Jan-12 04:00N 48°23' W 004°29'0 0.0
2018-Jan-12 03:30N 48°23' W 004°29'0 0.0
2018-Jan-12 03:01N 48°23' W 004°29'0 0.0
2018-Jan-12 02:31N 48°23' W 004°29'0 0.0
2018-Jan-12 02:00N 48°23' W 004°29'0 0.0
2018-Jan-12 01:30N 48°23' W 004°29'0 0.0
2018-Jan-12 01:00N 48°23' W 004°29'0 0.0
2018-Jan-12 00:30N 48°23' W 004°29'0 0.0
2018-Jan-12 00:00N 48°23' W 004°29'0 0.0
2018-Jan-11 23:30N 48°23' W 004°29'0 0.0
2018-Jan-11 23:00N 48°23' W 004°29'0 0.0
2018-Jan-11 22:30N 48°23' W 004°29'0 0.0
2018-Jan-11 22:00N 48°23' W 004°29'0 0.0
2018-Jan-11 21:30N 48°23' W 004°29'0 0.0
2018-Jan-11 21:00N 48°23' W 004°29'0 0.0
2018-Jan-11 20:30N 48°23' W 004°29'0 0.0
2018-Jan-11 20:00N 48°23' W 004°29'0 0.0
2018-Jan-11 19:30N 48°23' W 004°29'0 0.0
2018-Jan-11 19:00N 48°23' W 004°29'0 0.0
2018-Jan-11 18:30N 48°23' W 004°29'0 0.0
2018-Jan-11 18:00N 48°23' W 004°29'0 0.0
2018-Jan-11 17:30N 48°23' W 004°29'0 0.0
2018-Jan-11 17:00N 48°23' W 004°29'0 0.0
2018-Jan-11 16:30N 48°23' W 004°29'0 0.0
2018-Jan-11 16:00N 48°23' W 004°29'0 0.0
2018-Jan-11 15:30N 48°23' W 004°29'0 0.0
2018-Jan-11 15:00N 48°23' W 004°29'0 0.0
2018-Jan-11 13:56N 48°23' W 004°29'0 0.2
2018-Jan-11 13:30N 48°23' W 004°29'5 9.5
2018-Jan-11 13:00N 48°21' W 004°35'611.6
2018-Jan-11 12:30N 48°19' W 004°44'612.0
2018-Jan-11 12:00N 48°23' W 004°51'5 9.4
2018-Jan-11 11:30N 48°24' W 004°57'0 0.1
2018-Jan-11 11:00N 48°24' W 004°57'510.5
2018-Jan-11 10:30N 48°28' W 005°02'1 1.8
2018-Jan-11 10:00N 48°28' W 005°03'0 0.0
2018-Jan-11 09:30N 48°28' W 005°03'0 0.1
2018-Jan-11 09:00N 48°28' W 005°03'3 6.9
2018-Jan-11 08:30N 48°26' W 004°59'611.4
2018-Jan-11 08:00N 48°24' W 004°51'612.5
2018-Jan-11 07:30N 48°19' W 004°45'612.6
2018-Jan-11 07:00N 48°20' W 004°36'5 9.9
2018-Jan-11 06:31N 48°22' W 004°29'  
2018-Jan-04 13:40N 48°23' W 004°29'  
Track history (hours):
 
Tides and Currents Weather Stations Pressure Air Temp Water Temp Dewpoint Dewpoint Depression Visibility Wind Speed Wind Dir Waves Ship Positions

Molenez

Last reported at 2018-Jan-12 15:00 UTC. Time now 2018-Jan-18 16:15 UTC.
Position N 48°23' W 004°29'.

Length 37 m; draft 2.4 m.

MMSI: 227008170.

Date/timePositionNaut miles runAvg speedWind from/ knotsBaromVisibWave heightAir tempDewpointWater temp
2018-Jan-12 15:00N 48°23' W 004°29'4 7.5
2018-Jan-12 14:31N 48°21' W 004°34'611.4
2018-Jan-12 14:01N 48°20' W 004°42'510.9
2018-Jan-12 13:30N 48°22' W 004°50'611.1
2018-Jan-12 13:00N 48°25' W 004°57'1 1.2
2018-Jan-12 12:31N 48°25' W 004°57'510.1
2018-Jan-12 12:00N 48°28' W 005°03'0 0.0
2018-Jan-12 11:30N 48°28' W 005°03'0 0.0
2018-Jan-12 11:00N 48°28' W 005°03'0 0.0
2018-Jan-12 10:30N 48°28' W 005°03'1 3.0
2018-Jan-12 10:00N 48°28' W 005°01'5 8.5
2018-Jan-12 09:28N 48°24' W 004°57'4 8.9
2018-Jan-12 09:00N 48°24' W 004°51'612.7
2018-Jan-12 08:31N 48°19' W 004°45'612.6
2018-Jan-12 08:00N 48°20' W 004°36'5 9.5
2018-Jan-12 07:30N 48°22' W 004°29'1 1.2
2018-Jan-12 07:00N 48°23' W 004°29'0 0.0
2018-Jan-12 06:30N 48°23' W 004°29'0 0.0
2018-Jan-12 06:00N 48°23' W 004°29'0 0.0
2018-Jan-12 05:30N 48°23' W 004°29'0 0.0
2018-Jan-12 05:00N 48°23' W 004°29'0 0.0
2018-Jan-12 04:30N 48°23' W 004°29'0 0.0
2018-Jan-12 04:00N 48°23' W 004°29'0 0.0
2018-Jan-12 03:30N 48°23' W 004°29'0 0.0
2018-Jan-12 03:01N 48°23' W 004°29'0 0.0
2018-Jan-12 02:31N 48°23' W 004°29'0 0.0
2018-Jan-12 02:00N 48°23' W 004°29'0 0.0
2018-Jan-12 01:30N 48°23' W 004°29'0 0.0
2018-Jan-12 01:00N 48°23' W 004°29'0 0.0
2018-Jan-12 00:30N 48°23' W 004°29'0 0.0
2018-Jan-12 00:00N 48°23' W 004°29'0 0.0
2018-Jan-11 23:30N 48°23' W 004°29'0 0.0
2018-Jan-11 23:00N 48°23' W 004°29'0 0.0
2018-Jan-11 22:30N 48°23' W 004°29'0 0.0
2018-Jan-11 22:00N 48°23' W 004°29'0 0.0
2018-Jan-11 21:30N 48°23' W 004°29'0 0.0
2018-Jan-11 21:00N 48°23' W 004°29'0 0.0
2018-Jan-11 20:30N 48°23' W 004°29'0 0.0
2018-Jan-11 20:00N 48°23' W 004°29'0 0.0
2018-Jan-11 19:30N 48°23' W 004°29'0 0.0
2018-Jan-11 19:00N 48°23' W 004°29'0 0.0
2018-Jan-11 18:30N 48°23' W 004°29'0 0.0
2018-Jan-11 18:00N 48°23' W 004°29'0 0.0
2018-Jan-11 17:30N 48°23' W 004°29'0 0.0
2018-Jan-11 17:00N 48°23' W 004°29'0 0.0
2018-Jan-11 16:30N 48°23' W 004°29'0 0.0
2018-Jan-11 16:00N 48°23' W 004°29'0 0.0
2018-Jan-11 15:30N 48°23' W 004°29'0 0.0
2018-Jan-11 15:00N 48°23' W 004°29'0 0.0
2018-Jan-11 13:56N 48°23' W 004°29'0 0.2
2018-Jan-11 13:30N 48°23' W 004°29'5 9.5
2018-Jan-11 13:00N 48°21' W 004°35'611.6
2018-Jan-11 12:30N 48°19' W 004°44'612.0
2018-Jan-11 12:00N 48°23' W 004°51'5 9.4
2018-Jan-11 11:30N 48°24' W 004°57'0 0.1
2018-Jan-11 11:00N 48°24' W 004°57'510.5
2018-Jan-11 10:30N 48°28' W 005°02'1 1.8
2018-Jan-11 10:00N 48°28' W 005°03'0 0.0
2018-Jan-11 09:30N 48°28' W 005°03'0 0.1
2018-Jan-11 09:00N 48°28' W 005°03'3 6.9
2018-Jan-11 08:30N 48°26' W 004°59'611.4
2018-Jan-11 08:00N 48°24' W 004°51'612.5
2018-Jan-11 07:30N 48°19' W 004°45'612.6
2018-Jan-11 07:00N 48°20' W 004°36'5 9.9
2018-Jan-11 06:31N 48°22' W 004°29'  
2018-Jan-04 13:40N 48°23' W 004°29'  

Dump ship's entire track history